createdAt,value
2023-04-01T00:00:45.641Z,11.35
2023-04-01T00:01:45.571Z,11.24
2023-04-01T00:02:45.562Z,11.17
2023-04-01T00:03:45.615Z,11.12
2023-04-01T00:04:45.540Z,11.23
2023-04-01T00:05:45.311Z,11.11
2023-04-01T00:06:45.244Z,11.21
2023-04-01T00:07:45.174Z,11.12
2023-04-01T00:08:45.140Z,11.09
2023-04-01T00:09:45.105Z,11.08
2023-04-01T00:10:45.009Z,10.99
2023-04-01T00:11:44.948Z,10.94
2023-04-01T00:12:44.964Z,11.03
2023-04-01T00:13:44.857Z,10.83
2023-04-01T00:14:44.898Z,10.97
2023-04-01T00:15:44.744Z,10.87
2023-04-01T00:16:44.825Z,10.91
2023-04-01T00:17:44.674Z,10.80
2023-04-01T00:18:44.557Z,10.81
2023-04-01T00:19:44.509Z,10.84
2023-04-01T00:20:44.448Z,10.65
2023-04-01T00:21:44.380Z,10.89
2023-04-01T00:22:44.347Z,10.75
2023-04-01T00:23:44.276Z,10.51
2023-04-01T00:24:44.624Z,10.62
2023-04-01T00:25:44.169Z,10.67
2023-04-01T00:26:44.189Z,10.53
2023-04-01T00:27:44.044Z,10.57
2023-04-01T00:28:44.012Z,10.42
2023-04-01T00:29:44.119Z,10.49
2023-04-01T00:30:43.886Z,10.55
2023-04-01T00:31:43.879Z,10.46
2023-04-01T00:32:43.834Z,10.38
2023-04-01T00:33:43.731Z,10.41
2023-04-01T00:34:43.720Z,10.12
2023-04-01T00:35:43.595Z,10.42
2023-04-01T00:36:43.526Z,10.43
2023-04-01T00:37:43.455Z,10.40
2023-04-01T00:38:43.458Z,10.27
2023-04-01T00:39:43.359Z,10.22
2023-04-01T00:40:43.282Z,10.27
2023-04-01T00:41:43.207Z,10.19
2023-04-01T00:42:43.155Z,10.25
2023-04-01T00:43:43.102Z,10.19
2023-04-01T00:44:43.665Z,10.09
2023-04-01T00:45:43.048Z,10.29
2023-04-01T00:46:42.924Z,10.04
2023-04-01T00:47:42.892Z,10.00
2023-04-01T00:48:42.795Z,9.97
2023-04-01T00:49:42.819Z,9.96
2023-04-01T00:50:42.679Z,9.90
2023-04-01T00:51:42.589Z,9.85
2023-04-01T00:52:42.524Z,9.92
2023-04-01T00:53:42.467Z,9.86
2023-04-01T00:54:42.393Z,9.89
2023-04-01T00:55:42.324Z,9.92
2023-04-01T00:56:42.268Z,9.76
2023-04-01T00:57:42.225Z,9.95
2023-04-01T00:58:42.156Z,9.67
2023-04-01T00:59:42.094Z,9.59
2023-04-01T01:00:42.081Z,9.65
2023-04-01T01:01:42.015Z,9.40
2023-04-01T01:02:41.986Z,9.53
2023-04-01T01:03:41.860Z,9.48
2023-04-01T01:04:41.800Z,9.53
2023-04-01T01:05:48.853Z,9.43
2023-04-01T01:06:42.681Z,9.44
2023-04-01T01:07:41.597Z,9.46
2023-04-01T01:08:41.522Z,9.50
2023-04-01T01:09:41.510Z,9.52
2023-04-01T01:10:41.408Z,9.61
2023-04-01T01:11:43.772Z,9.64
2023-04-01T01:12:41.532Z,9.55
2023-04-01T01:13:41.471Z,9.65
2023-04-01T01:14:41.435Z,9.42
2023-04-01T01:15:41.365Z,9.45
2023-04-01T01:16:41.385Z,9.44
2023-04-01T01:17:41.326Z,9.28
2023-04-01T01:18:41.209Z,9.33
2023-04-01T01:19:41.223Z,9.31
2023-04-01T01:20:41.093Z,9.39
2023-04-01T01:21:41.048Z,9.31
2023-04-01T01:22:41.006Z,9.27
2023-04-01T01:23:40.943Z,9.32
2023-04-01T01:24:40.870Z,9.11
2023-04-01T01:25:40.838Z,9.22
2023-04-01T01:26:40.768Z,9.25
2023-04-01T01:27:40.715Z,9.15
2023-04-01T01:28:40.673Z,9.10
2023-04-01T01:29:40.628Z,9.13
2023-04-01T01:30:40.618Z,9.12
2023-04-01T01:31:40.533Z,9.13
2023-04-01T01:32:40.496Z,8.88
2023-04-01T01:33:40.417Z,8.89
2023-04-01T01:34:40.335Z,8.93
2023-04-01T01:35:40.309Z,8.95
2023-04-01T01:36:40.212Z,9.01
2023-04-01T01:37:40.143Z,9.04
2023-04-01T01:38:40.077Z,8.98
2023-04-01T01:39:40.025Z,8.97
2023-04-01T01:40:39.940Z,8.89
2023-04-01T01:41:39.895Z,8.85
2023-04-01T01:42:39.825Z,8.92
2023-04-01T01:43:39.735Z,8.74
2023-04-01T01:44:39.669Z,8.76
2023-04-01T01:45:39.608Z,8.84
2023-04-01T01:46:39.547Z,8.76
2023-04-01T01:47:39.500Z,8.70
2023-04-01T01:48:39.415Z,8.67
2023-04-01T01:49:39.331Z,8.67
2023-04-01T01:50:39.267Z,8.66
2023-04-01T01:51:39.200Z,8.60
2023-04-01T01:52:39.133Z,8.57
2023-04-01T01:53:39.074Z,8.67
2023-04-01T01:54:39.025Z,8.67
2023-04-01T01:55:38.932Z,8.44
2023-04-01T01:56:38.879Z,8.58
2023-04-01T01:57:38.844Z,8.69
2023-04-01T01:58:38.767Z,8.51
2023-04-01T01:59:38.669Z,8.41
2023-04-01T02:00:38.598Z,8.38
2023-04-01T02:01:38.574Z,8.41
2023-04-01T02:02:38.517Z,8.46
2023-04-01T02:03:38.393Z,8.55
2023-04-01T02:04:38.361Z,8.41
2023-04-01T02:05:38.267Z,8.24
2023-04-01T02:06:38.215Z,8.34
2023-04-01T02:07:38.160Z,8.37
2023-04-01T02:08:38.102Z,8.40
2023-04-01T02:09:38.036Z,8.32
2023-04-01T02:10:37.993Z,8.28
2023-04-01T02:11:37.922Z,8.25
2023-04-01T02:12:37.873Z,8.17
2023-04-01T02:13:37.820Z,8.06
2023-04-01T02:14:37.769Z,8.27
2023-04-01T02:15:37.749Z,8.01
2023-04-01T02:16:37.675Z,8.09
2023-04-01T02:17:37.677Z,7.96
2023-04-01T02:18:37.537Z,8.06
2023-04-01T02:19:37.539Z,7.96
2023-04-01T02:20:37.453Z,7.96
2023-04-01T02:21:37.368Z,7.96
2023-04-01T02:22:37.336Z,7.96
2023-04-01T02:23:37.278Z,7.87
2023-04-01T02:24:37.269Z,7.82
2023-04-01T02:25:37.175Z,7.93
2023-04-01T02:26:37.102Z,7.78
2023-04-01T02:27:37.065Z,7.79
2023-04-01T02:28:37.007Z,7.81
2023-04-01T02:29:36.956Z,7.84
2023-04-01T02:30:36.910Z,7.73
2023-04-01T02:31:36.906Z,7.80
2023-04-01T02:32:36.862Z,7.71
2023-04-01T02:33:36.817Z,7.75
2023-04-01T02:34:36.674Z,7.72
2023-04-01T02:35:36.615Z,7.73
2023-04-01T02:36:36.529Z,7.73
2023-04-01T02:37:38.544Z,7.75
2023-04-01T02:38:36.399Z,7.89
2023-04-01T02:39:36.340Z,7.92
2023-04-01T02:40:36.268Z,7.72
2023-04-01T02:41:36.199Z,7.73
2023-04-01T02:42:36.147Z,7.69
2023-04-01T02:43:36.074Z,7.68
2023-04-01T02:44:36.000Z,7.56
2023-04-01T02:45:35.973Z,7.60
2023-04-01T02:46:35.890Z,7.61
2023-04-01T02:47:35.811Z,7.56
2023-04-01T02:48:35.745Z,7.53
2023-04-01T02:49:35.669Z,7.51
2023-04-01T02:50:35.635Z,7.47
2023-04-01T02:51:35.531Z,7.45
2023-04-01T02:52:35.465Z,7.46
2023-04-01T02:53:35.440Z,7.45
2023-04-01T02:54:35.340Z,7.43
2023-04-01T02:55:35.633Z,7.44
2023-04-01T02:56:35.199Z,7.44
2023-04-01T02:57:35.154Z,7.28
2023-04-01T02:58:35.092Z,7.21
2023-04-01T02:59:35.000Z,7.22
2023-04-01T03:00:34.965Z,7.17
2023-04-01T03:01:34.920Z,7.20
2023-04-01T03:02:34.900Z,7.28
2023-04-01T03:03:34.758Z,7.15
2023-04-01T03:04:34.682Z,7.19
2023-04-01T03:05:34.929Z,7.10
2023-04-01T03:06:35.165Z,7.07
2023-04-01T03:07:34.624Z,7.09
2023-04-01T03:08:34.606Z,7.10
2023-04-01T03:09:34.596Z,7.11
2023-04-01T03:10:34.586Z,7.18
2023-04-01T03:11:34.565Z,7.18
2023-04-01T03:12:34.507Z,7.21
2023-04-01T03:13:34.462Z,7.13
2023-04-01T03:14:34.406Z,7.18
2023-04-01T03:15:34.529Z,7.03
2023-04-01T03:16:34.341Z,7.04
2023-04-01T03:17:34.272Z,7.07
2023-04-01T03:18:34.204Z,6.96
2023-04-01T03:19:34.165Z,7.02
2023-04-01T03:20:34.102Z,6.99
2023-04-01T03:21:34.058Z,6.87
2023-04-01T03:22:34.002Z,6.94
2023-04-01T03:23:33.933Z,6.95
2023-04-01T03:24:33.899Z,6.81
2023-04-01T03:25:33.986Z,6.84
2023-04-01T03:26:33.807Z,6.86
2023-04-01T03:27:33.733Z,6.73
2023-04-01T03:28:33.668Z,6.81
2023-04-01T03:29:33.628Z,6.84
2023-04-01T03:30:33.591Z,6.75
2023-04-01T03:31:33.627Z,6.62
2023-04-01T03:32:33.480Z,6.66
2023-04-01T03:33:33.386Z,6.68
2023-04-01T03:34:33.326Z,6.68
2023-04-01T03:35:33.484Z,6.69
2023-04-01T03:36:33.265Z,6.65
2023-04-01T03:37:33.126Z,6.69
2023-04-01T03:38:33.064Z,6.64
2023-04-01T03:39:33.001Z,6.63
2023-04-01T03:40:32.929Z,6.59
2023-04-01T03:41:32.899Z,6.47
2023-04-01T03:42:32.832Z,6.49
2023-04-01T03:43:32.747Z,6.51
2023-04-01T03:44:32.686Z,6.46
2023-04-01T03:45:32.888Z,6.48
2023-04-01T03:46:32.580Z,6.53
2023-04-01T03:47:32.554Z,6.54
2023-04-01T03:48:32.439Z,6.36
2023-04-01T03:49:32.347Z,6.39
2023-04-01T03:50:32.304Z,6.46
2023-04-01T03:51:32.229Z,6.30
2023-04-01T03:52:32.136Z,6.34
2023-04-01T03:53:32.078Z,6.35
2023-04-01T03:54:32.014Z,6.32
2023-04-01T03:55:32.126Z,6.23
2023-04-01T03:56:31.880Z,6.20
2023-04-01T03:57:31.835Z,6.17
2023-04-01T03:58:31.734Z,6.30
2023-04-01T03:59:31.666Z,6.21
2023-04-01T04:00:31.594Z,6.16
2023-04-01T04:01:31.700Z,6.09
2023-04-01T04:02:31.497Z,6.05
2023-04-01T04:03:31.560Z,6.12
2023-04-01T04:04:31.326Z,6.09
2023-04-01T04:05:31.595Z,6.09
2023-04-01T04:06:31.177Z,6.09
2023-04-01T04:07:31.096Z,6.00
2023-04-01T04:08:31.028Z,5.98
2023-04-01T04:09:30.964Z,6.07
2023-04-01T04:10:30.904Z,6.10
2023-04-01T04:11:30.814Z,6.07
2023-04-01T04:12:30.751Z,5.91
2023-04-01T04:13:30.685Z,5.97
2023-04-01T04:14:30.614Z,5.89
2023-04-01T04:15:30.883Z,5.98
2023-04-01T04:16:30.532Z,5.85
2023-04-01T04:17:30.484Z,5.86
2023-04-01T04:18:30.340Z,5.96
2023-04-01T04:19:30.270Z,5.90
2023-04-01T04:20:30.197Z,5.84
2023-04-01T04:21:30.149Z,5.85
2023-04-01T04:22:30.066Z,5.85
2023-04-01T04:23:30.003Z,5.78
2023-04-01T04:24:29.942Z,5.90
2023-04-01T04:25:29.880Z,5.84
2023-04-01T04:26:29.799Z,5.80
2023-04-01T04:27:29.731Z,5.76
2023-04-01T04:28:29.670Z,5.79
2023-04-01T04:29:29.579Z,5.78
2023-04-01T04:30:29.510Z,5.71
2023-04-01T04:31:29.599Z,5.67
2023-04-01T04:32:30.105Z,5.62
2023-04-01T04:33:29.328Z,5.67
2023-04-01T04:34:29.244Z,5.66
2023-04-01T04:35:29.188Z,5.66
2023-04-01T04:36:29.108Z,5.63
2023-04-01T04:37:29.038Z,5.60
2023-04-01T04:38:29.002Z,5.67
2023-04-01T04:39:28.910Z,5.66
2023-04-01T04:40:28.841Z,5.58
2023-04-01T04:41:28.770Z,5.53
2023-04-01T04:42:28.712Z,5.58
2023-04-01T04:43:28.644Z,5.51
2023-04-01T04:44:28.569Z,5.53
2023-04-01T04:45:28.508Z,5.53
2023-04-01T04:46:28.457Z,5.61
2023-04-01T04:47:28.477Z,5.44
2023-04-01T04:48:28.306Z,5.48
2023-04-01T04:49:28.237Z,5.41
2023-04-01T04:50:28.163Z,5.45
2023-04-01T04:51:28.102Z,5.42
2023-04-01T04:52:28.040Z,5.38
2023-04-01T04:53:27.969Z,5.30
2023-04-01T04:54:27.885Z,5.36
2023-04-01T04:55:27.833Z,5.36
2023-04-01T04:56:27.767Z,5.40
2023-04-01T04:57:27.752Z,5.33
2023-04-01T04:58:27.635Z,5.24
2023-04-01T04:59:27.570Z,5.30
2023-04-01T05:00:27.502Z,5.25
2023-04-01T05:01:27.509Z,5.20
2023-04-01T05:02:27.503Z,5.23
2023-04-01T05:03:27.406Z,5.25
2023-04-01T05:04:27.274Z,5.22
2023-04-01T05:05:27.204Z,5.20
2023-04-01T05:06:27.131Z,5.25
2023-04-01T05:07:27.094Z,5.09
2023-04-01T05:08:27.026Z,5.16
2023-04-01T05:09:26.961Z,5.19
2023-04-01T05:10:26.899Z,5.13
2023-04-01T05:11:26.840Z,5.09
2023-04-01T05:12:26.760Z,5.15
2023-04-01T05:13:26.704Z,5.07
2023-04-01T05:14:26.635Z,5.14
2023-04-01T05:15:26.582Z,5.01
2023-04-01T05:16:26.547Z,5.04
2023-04-01T05:17:26.516Z,4.97
2023-04-01T05:18:26.389Z,5.01
2023-04-01T05:19:26.320Z,5.00
2023-04-01T05:20:26.290Z,5.03
2023-04-01T05:21:26.213Z,4.94
2023-04-01T05:22:26.139Z,4.96
2023-04-01T05:23:26.069Z,4.98
2023-04-01T05:24:26.046Z,5.01
2023-04-01T05:25:25.957Z,4.89
2023-04-01T05:26:25.865Z,4.84
2023-04-01T05:27:26.228Z,4.84
2023-04-01T05:28:25.750Z,4.94
2023-04-01T05:29:25.652Z,4.94
2023-04-01T05:30:25.587Z,4.94
2023-04-01T05:31:25.681Z,4.86
2023-04-01T05:32:25.481Z,4.92
2023-04-01T05:33:25.389Z,4.91
2023-04-01T05:34:25.303Z,4.92
2023-04-01T05:35:25.284Z,4.82
2023-04-01T05:36:25.159Z,4.87
2023-04-01T05:37:25.085Z,4.87
2023-04-01T05:38:25.005Z,4.88
2023-04-01T05:39:24.915Z,4.87
2023-04-01T05:40:24.849Z,4.84
2023-04-01T05:41:24.777Z,4.88
2023-04-01T05:42:24.714Z,4.88
2023-04-01T05:43:24.614Z,4.85
2023-04-01T05:44:24.550Z,4.86
2023-04-01T05:45:24.459Z,4.87
2023-04-01T05:46:24.422Z,4.77
2023-04-01T05:47:24.408Z,4.74
2023-04-01T05:48:24.239Z,4.83
2023-04-01T05:49:25.221Z,4.80
2023-04-01T05:50:24.130Z,4.88
2023-04-01T05:51:24.020Z,4.80
2023-04-01T05:52:23.955Z,4.75
2023-04-01T05:53:23.884Z,4.74
2023-04-01T05:54:23.814Z,4.62
2023-04-01T05:55:23.745Z,4.70
2023-04-01T05:56:23.677Z,4.65
2023-04-01T05:57:23.671Z,4.60
2023-04-01T05:58:23.517Z,4.72
2023-04-01T05:59:23.447Z,4.67
2023-04-01T06:00:23.392Z,4.72
2023-04-01T06:01:23.288Z,4.65
2023-04-01T06:02:23.327Z,4.63
2023-04-01T06:03:23.230Z,4.64
2023-04-01T06:04:23.136Z,4.66
2023-04-01T06:05:22.983Z,4.65
2023-04-01T06:06:22.911Z,4.67
2023-04-01T06:07:22.836Z,4.68
2023-04-01T06:08:22.745Z,4.62
2023-04-01T06:09:22.673Z,4.62
2023-04-01T06:10:22.614Z,4.62
2023-04-01T06:11:22.564Z,4.63
2023-04-01T06:12:22.475Z,4.53
2023-04-01T06:13:22.377Z,4.58
2023-04-01T06:14:22.307Z,4.53
2023-04-01T06:15:22.233Z,4.52
2023-04-01T06:16:22.196Z,4.52
2023-04-01T06:17:22.092Z,4.55
2023-04-01T06:18:22.042Z,4.47
2023-04-01T06:19:21.938Z,4.50
2023-04-01T06:20:21.857Z,4.48
2023-04-01T06:21:21.779Z,4.54
2023-04-01T06:22:21.710Z,4.54
2023-04-01T06:23:21.646Z,4.55
2023-04-01T06:24:21.595Z,4.53
2023-04-01T06:25:21.513Z,4.53
2023-04-01T06:26:21.447Z,4.55
2023-04-01T06:27:21.379Z,4.51
2023-04-01T06:28:21.305Z,4.40
2023-04-01T06:29:21.232Z,4.45
2023-04-01T06:30:21.176Z,4.53
2023-04-01T06:31:21.172Z,4.40
2023-04-01T06:32:21.094Z,4.44
2023-04-01T06:33:20.976Z,4.38
2023-04-01T06:34:20.928Z,4.44
2023-04-01T06:35:20.820Z,4.40
2023-04-01T06:36:20.833Z,4.42
2023-04-01T06:37:20.679Z,4.39
2023-04-01T06:38:20.629Z,4.40
2023-04-01T06:39:20.536Z,4.33
2023-04-01T06:40:20.469Z,4.33
2023-04-01T06:41:20.419Z,4.34
2023-04-01T06:42:20.338Z,4.33
2023-04-01T06:43:20.268Z,4.24
2023-04-01T06:44:20.181Z,4.25
2023-04-01T06:45:20.107Z,4.27
2023-04-01T06:46:20.150Z,4.29
2023-04-01T06:47:19.972Z,4.33
2023-04-01T06:48:19.914Z,4.25
2023-04-01T06:49:19.868Z,4.31
2023-04-01T06:50:19.744Z,4.28
2023-04-01T06:51:19.676Z,4.23
2023-04-01T06:52:19.611Z,4.29
2023-04-01T06:53:19.540Z,4.28
2023-04-01T06:54:19.475Z,4.27
2023-04-01T06:55:20.271Z,4.27
2023-04-01T06:56:19.324Z,4.28
2023-04-01T06:57:19.328Z,4.29
2023-04-01T06:58:19.269Z,4.31
2023-04-01T06:59:19.244Z,4.28
2023-04-01T07:00:19.186Z,4.29
2023-04-01T07:01:19.194Z,4.26
2023-04-01T07:02:19.093Z,4.22
2023-04-01T07:03:19.033Z,4.22
2023-04-01T07:04:19.058Z,4.22
2023-04-01T07:05:18.935Z,4.15
2023-04-01T07:06:18.888Z,4.21
2023-04-01T07:07:18.858Z,4.13
2023-04-01T07:08:18.817Z,4.17
2023-04-01T07:09:18.764Z,4.15
2023-04-01T07:10:18.759Z,4.13
2023-04-01T07:11:18.799Z,4.11
2023-04-01T07:12:18.726Z,4.09
2023-04-01T07:13:18.730Z,4.13
2023-04-01T07:14:18.796Z,4.12
2023-04-01T07:15:18.712Z,4.06
2023-04-01T07:16:18.744Z,4.13
2023-04-01T07:17:18.705Z,4.03
2023-04-01T07:18:18.691Z,4.03
2023-04-01T07:19:18.708Z,4.03
2023-04-01T07:20:18.670Z,4.08
2023-04-01T07:21:18.650Z,4.03
2023-04-01T07:22:18.655Z,4.04
2023-04-01T07:23:18.629Z,4.04
2023-04-01T07:24:18.623Z,4.02
2023-04-01T07:25:18.601Z,4.02
2023-04-01T07:26:18.570Z,4.04
2023-04-01T07:27:18.539Z,4.03
2023-04-01T07:28:18.539Z,3.96
2023-04-01T07:29:18.501Z,4.03
2023-04-01T07:30:18.640Z,4.00
2023-04-01T07:31:18.462Z,4.00
2023-04-01T07:32:18.398Z,4.01
2023-04-01T07:33:18.386Z,4.01
2023-04-01T07:34:18.231Z,4.03
2023-04-01T07:35:18.183Z,4.01
2023-04-01T07:36:18.107Z,4.00
2023-04-01T07:37:17.984Z,3.98
2023-04-01T07:38:17.933Z,3.98
2023-04-01T07:39:17.901Z,3.95
2023-04-01T07:40:17.759Z,3.89
2023-04-01T07:41:18.269Z,3.93
2023-04-01T07:42:17.611Z,3.91
2023-04-01T07:43:17.529Z,3.91
2023-04-01T07:44:17.519Z,3.88
2023-04-01T07:45:17.464Z,3.91
2023-04-01T07:46:17.498Z,3.86
2023-04-01T07:47:17.419Z,3.92
2023-04-01T07:48:17.372Z,3.83
2023-04-01T07:49:17.359Z,3.78
2023-04-01T07:50:17.283Z,3.78
2023-04-01T07:51:17.194Z,3.80
2023-04-01T07:52:17.110Z,3.81
2023-04-01T07:53:17.038Z,3.81
2023-04-01T07:54:16.970Z,3.92
2023-04-01T07:55:16.871Z,3.90
2023-04-01T07:56:16.817Z,3.90
2023-04-01T07:57:16.752Z,3.84
2023-04-01T07:58:16.625Z,3.86
2023-04-01T07:59:16.541Z,3.92
2023-04-01T08:00:16.471Z,3.73
2023-04-01T08:01:16.371Z,3.78
2023-04-01T08:02:16.350Z,3.66
2023-04-01T08:03:16.335Z,3.67
2023-04-01T08:04:16.181Z,3.69
2023-04-01T08:05:16.047Z,3.70
2023-04-01T08:06:15.965Z,3.76
2023-04-01T08:07:15.871Z,3.83
2023-04-01T08:08:15.778Z,3.63
2023-04-01T08:09:15.749Z,3.67
2023-04-01T08:10:15.612Z,3.72
2023-04-01T08:11:15.550Z,3.55
2023-04-01T08:12:15.446Z,3.58
2023-04-01T08:13:15.371Z,3.50
2023-04-01T08:14:15.293Z,3.54
2023-04-01T08:15:15.160Z,3.49
2023-04-01T08:16:15.119Z,3.69
2023-04-01T08:17:14.989Z,3.60
2023-04-01T08:18:14.889Z,3.55
2023-04-01T08:19:14.824Z,3.71
2023-04-01T08:20:14.707Z,3.70
2023-04-01T08:21:14.621Z,3.52
2023-04-01T08:22:14.545Z,3.41
2023-04-01T08:23:14.459Z,3.50
2023-04-01T08:24:14.355Z,3.58
2023-04-01T08:25:14.253Z,3.58
2023-04-01T08:26:14.164Z,3.41
2023-04-01T08:27:14.072Z,3.46
2023-04-01T08:28:13.999Z,3.49
2023-04-01T08:29:13.901Z,3.33
2023-04-01T08:30:13.814Z,3.42
2023-04-01T08:31:13.881Z,3.40
2023-04-01T08:32:13.807Z,3.42
2023-04-01T08:33:13.694Z,3.43
2023-04-01T08:34:13.580Z,3.43
2023-04-01T08:35:13.451Z,3.43
2023-04-01T08:36:13.380Z,3.40
2023-04-01T08:37:13.265Z,3.33
2023-04-01T08:38:13.160Z,3.34
2023-04-01T08:39:13.107Z,3.29
2023-04-01T08:40:12.980Z,3.36
2023-04-01T08:41:12.870Z,3.29
2023-04-01T08:42:12.859Z,3.35
2023-04-01T08:43:12.848Z,3.27
2023-04-01T08:44:12.805Z,3.27
2023-04-01T08:45:14.560Z,3.22
2023-04-01T08:46:12.767Z,3.21
2023-04-01T08:47:12.716Z,3.23
2023-04-01T08:48:12.694Z,3.27
2023-04-01T08:49:12.640Z,3.19
2023-04-01T08:50:12.596Z,3.21
2023-04-01T08:51:12.571Z,3.21
2023-04-01T08:52:12.571Z,3.18
2023-04-01T08:53:12.512Z,3.23
2023-04-01T08:54:12.505Z,3.17
2023-04-01T08:55:12.516Z,3.14
2023-04-01T08:56:12.450Z,3.16
2023-04-01T08:57:12.437Z,3.21
2023-04-01T08:58:12.383Z,3.15
2023-04-01T08:59:12.353Z,3.10
2023-04-01T09:00:12.339Z,3.06
2023-04-01T09:01:12.277Z,3.18
2023-04-01T09:02:12.268Z,3.10
2023-04-01T09:03:12.250Z,3.06
2023-04-01T09:04:12.135Z,3.04
2023-04-01T09:05:12.075Z,3.06
2023-04-01T09:06:12.042Z,3.07
2023-04-01T09:07:12.841Z,3.10
2023-04-01T09:08:11.947Z,3.05
2023-04-01T09:09:11.907Z,3.06
2023-04-01T09:10:11.876Z,3.13
2023-04-01T09:11:11.817Z,3.09
2023-04-01T09:12:11.797Z,3.03
2023-04-01T09:13:11.723Z,3.11
2023-04-01T09:14:11.695Z,3.05
2023-04-01T09:15:11.711Z,3.09
2023-04-01T09:16:11.693Z,3.07
2023-04-01T09:17:11.622Z,3.10
2023-04-01T09:18:11.566Z,3.07
2023-04-01T09:19:11.518Z,3.05
2023-04-01T09:20:11.514Z,3.11
2023-04-01T09:21:11.446Z,3.12
2023-04-01T09:22:11.416Z,3.04
2023-04-01T09:23:11.390Z,3.09
2023-04-01T09:24:11.354Z,3.05
2023-04-01T09:25:11.325Z,3.05
2023-04-01T09:26:11.225Z,3.06
2023-04-01T09:27:11.176Z,3.07
2023-04-01T09:28:11.028Z,3.08
2023-04-01T09:29:10.954Z,3.11
2023-04-01T09:30:10.818Z,3.15
2023-04-01T09:31:10.728Z,3.13
2023-04-01T09:32:10.630Z,3.12
2023-04-01T09:33:10.523Z,3.11
2023-04-01T09:34:10.501Z,3.18
2023-04-01T09:35:10.488Z,3.13
2023-04-01T09:36:10.526Z,3.17
2023-04-01T09:37:10.423Z,3.15
2023-04-01T09:38:10.409Z,3.09
2023-04-01T09:39:10.391Z,3.10
2023-04-01T09:40:10.345Z,3.14
2023-04-01T09:41:10.335Z,3.13
2023-04-01T09:42:10.274Z,3.18
2023-04-01T09:43:10.243Z,3.13
2023-04-01T09:44:10.210Z,3.20
2023-04-01T09:45:10.195Z,3.13
2023-04-01T09:46:10.215Z,3.23
2023-04-01T09:47:10.139Z,3.09
2023-04-01T09:48:10.141Z,3.16
2023-04-01T09:49:10.105Z,3.13
2023-04-01T09:50:10.076Z,3.13
2023-04-01T09:51:10.037Z,3.12
2023-04-01T09:52:10.011Z,3.10
2023-04-01T09:53:09.962Z,3.16
2023-04-01T09:54:09.946Z,3.15
2023-04-01T09:55:09.907Z,3.18
2023-04-01T09:56:09.878Z,3.22
2023-04-01T09:57:09.883Z,3.15
2023-04-01T09:58:09.781Z,3.12
2023-04-01T09:59:09.780Z,3.13
2023-04-01T10:00:09.742Z,3.14
2023-04-01T10:01:09.721Z,3.15
2023-04-01T10:02:09.755Z,3.19
2023-04-01T10:03:09.620Z,3.09
2023-04-01T10:04:09.609Z,3.14
2023-04-01T10:05:09.568Z,3.17
2023-04-01T10:06:09.520Z,3.11
2023-04-01T10:07:09.449Z,3.14
2023-04-01T10:08:09.409Z,3.19
2023-04-01T10:09:09.368Z,3.24
2023-04-01T10:10:09.324Z,3.13
2023-04-01T10:11:09.287Z,3.09
2023-04-01T10:12:09.263Z,3.09
2023-04-01T10:13:09.214Z,3.13
2023-04-01T10:14:09.190Z,3.11
2023-04-01T10:15:09.102Z,3.20
2023-04-01T10:16:09.086Z,3.13
2023-04-01T10:17:09.054Z,3.24
2023-04-01T10:18:09.071Z,3.21
2023-04-01T10:19:08.969Z,3.12
2023-04-01T10:20:08.927Z,3.08
2023-04-01T10:21:08.889Z,3.17
2023-04-01T10:22:08.823Z,3.28
2023-04-01T10:23:08.759Z,3.14
2023-04-01T10:24:08.704Z,3.24
2023-04-01T10:25:08.660Z,3.30
2023-04-01T10:26:08.606Z,3.22
2023-04-01T10:27:08.537Z,3.22
2023-04-01T10:28:08.454Z,3.23
2023-04-01T10:29:08.322Z,3.22
2023-04-01T10:30:08.251Z,3.24
2023-04-01T10:31:08.159Z,3.19
2023-04-01T10:32:08.087Z,3.18
2023-04-01T10:33:07.991Z,3.25
2023-04-01T10:34:07.874Z,3.31
2023-04-01T10:35:07.783Z,3.22
2023-04-01T10:36:07.781Z,3.21
2023-04-01T10:37:07.614Z,3.24
2023-04-01T10:38:07.553Z,3.18
2023-04-01T10:39:07.523Z,3.32
2023-04-01T10:40:07.499Z,3.22
2023-04-01T10:41:07.414Z,3.21
2023-04-01T10:42:07.399Z,3.15
2023-04-01T10:43:07.319Z,3.24
2023-04-01T10:44:07.224Z,3.25
2023-04-01T10:45:07.182Z,3.26
2023-04-01T10:46:07.191Z,3.37
2023-04-01T10:47:07.090Z,3.21
2023-04-01T10:48:07.054Z,3.26
2023-04-01T10:49:06.993Z,3.12
2023-04-01T10:50:06.932Z,3.23
2023-04-01T10:51:06.910Z,3.32
2023-04-01T10:52:06.808Z,3.32
2023-04-01T10:53:07.324Z,3.31
2023-04-01T10:54:06.669Z,3.21
2023-04-01T10:55:06.671Z,3.17
2023-04-01T10:56:06.602Z,3.26
2023-04-01T10:57:06.572Z,3.22
2023-04-01T10:58:06.451Z,3.26
2023-04-01T10:59:06.403Z,3.33
2023-04-01T11:00:06.330Z,3.41
2023-04-01T11:01:06.251Z,3.31
2023-04-01T11:02:11.396Z,3.17
2023-04-01T11:03:07.164Z,3.17
2023-04-01T11:04:06.010Z,3.18
2023-04-01T11:05:05.936Z,3.20
2023-04-01T11:06:05.835Z,3.25
2023-04-01T11:07:05.750Z,3.32
2023-04-01T11:08:07.110Z,3.22
2023-04-01T11:09:05.563Z,3.24
2023-04-01T11:10:05.463Z,3.04
2023-04-01T11:11:05.409Z,3.09
2023-04-01T11:12:05.293Z,3.26
2023-04-01T11:13:05.202Z,3.01
2023-04-01T11:14:05.132Z,3.05
2023-04-01T11:15:05.051Z,2.95
2023-04-01T11:16:04.975Z,2.97
2023-04-01T11:17:04.862Z,2.94
2023-04-01T11:18:04.786Z,2.91
2023-04-01T11:19:04.669Z,2.99
2023-04-01T11:20:04.661Z,2.88
2023-04-01T11:21:04.519Z,2.91
2023-04-01T11:22:04.457Z,2.86
2023-04-01T11:23:04.380Z,2.86
2023-04-01T11:24:05.990Z,2.86
2023-04-01T11:25:04.212Z,2.89
2023-04-01T11:26:04.120Z,2.79
2023-04-01T11:27:04.098Z,2.91
2023-04-01T11:28:03.966Z,2.78
2023-04-01T11:29:03.851Z,2.76
2023-04-01T11:30:03.764Z,2.75
2023-04-01T11:31:03.938Z,2.91
2023-04-01T11:32:03.583Z,2.84
2023-04-01T11:33:03.520Z,2.67
2023-04-01T11:34:03.390Z,2.66
2023-04-01T11:35:03.323Z,2.79
2023-04-01T11:36:03.226Z,2.78
2023-04-01T11:37:03.155Z,2.64
2023-04-01T11:38:03.056Z,2.76
2023-04-01T11:39:02.951Z,2.74
2023-04-01T11:40:02.849Z,2.69
2023-04-01T11:41:02.783Z,2.83
2023-04-01T11:42:02.714Z,2.68
2023-04-01T11:43:02.578Z,2.66
2023-04-01T11:44:02.524Z,2.87
2023-04-01T11:45:02.421Z,2.70
2023-04-01T11:46:02.391Z,2.79
2023-04-01T11:47:02.238Z,2.74
2023-04-01T11:48:02.163Z,2.70
2023-04-01T11:49:02.048Z,2.68
2023-04-01T11:50:01.989Z,2.74
2023-04-01T11:51:01.891Z,2.67
2023-04-01T11:52:01.818Z,2.74
2023-04-01T11:53:01.734Z,2.67
2023-04-01T11:54:01.609Z,2.86
2023-04-01T11:55:01.545Z,2.85
2023-04-01T11:56:01.444Z,2.87
2023-04-01T11:57:01.390Z,2.85
2023-04-01T11:58:01.245Z,2.76
2023-04-01T11:59:01.176Z,2.76
2023-04-01T12:00:01.072Z,2.72
2023-04-01T12:01:01.019Z,2.80
2023-04-01T12:02:00.893Z,2.76
2023-04-01T12:03:00.917Z,2.82
2023-04-01T12:04:00.869Z,2.74
2023-04-01T12:05:00.718Z,2.95
2023-04-01T12:06:00.642Z,2.77
2023-04-01T12:07:00.470Z,2.73
2023-04-01T12:08:00.390Z,2.87
2023-04-01T12:09:00.302Z,2.88
2023-04-01T12:10:00.207Z,2.89
2023-04-01T12:11:00.114Z,2.87
2023-04-01T12:12:00.014Z,2.80
2023-04-01T12:13:01.668Z,2.88
2023-04-01T12:13:59.833Z,2.90
2023-04-01T12:14:59.733Z,2.87
2023-04-01T12:15:59.681Z,2.75
2023-04-01T12:16:59.564Z,2.91
2023-04-01T12:17:59.517Z,2.95
2023-04-01T12:18:59.421Z,2.91
2023-04-01T12:19:59.301Z,2.71
2023-04-01T12:20:59.205Z,2.79
2023-04-01T12:21:59.118Z,2.92
2023-04-01T12:22:59.019Z,2.87
2023-04-01T12:23:58.944Z,2.75
2023-04-01T12:24:58.836Z,2.80
2023-04-01T12:25:58.764Z,2.83
2023-04-01T12:26:58.682Z,2.71
2023-04-01T12:27:58.593Z,2.77
2023-04-01T12:28:58.513Z,2.76
2023-04-01T12:29:58.437Z,2.73
2023-04-01T12:30:58.336Z,2.70
2023-04-01T12:31:58.272Z,2.55
2023-04-01T12:32:58.169Z,2.62
2023-04-01T12:33:58.074Z,2.54
2023-04-01T12:34:58.000Z,2.55
2023-04-01T12:35:57.911Z,2.59
2023-04-01T12:36:57.797Z,2.51
2023-04-01T12:37:57.705Z,2.45
2023-04-01T12:38:57.604Z,2.44
2023-04-01T12:39:57.560Z,2.37
2023-04-01T12:40:57.445Z,2.45
2023-04-01T12:41:57.346Z,2.31
2023-04-01T12:42:57.264Z,2.31
2023-04-01T12:43:57.170Z,2.34
2023-04-01T12:44:57.098Z,2.34
2023-04-01T12:45:57.052Z,2.32
2023-04-01T12:46:56.917Z,2.19
2023-04-01T12:47:56.850Z,2.32
2023-04-01T12:48:56.726Z,2.22
2023-04-01T12:49:56.665Z,2.21
2023-04-01T12:50:56.564Z,2.20
2023-04-01T12:51:56.494Z,2.11
2023-04-01T12:52:56.418Z,2.15
2023-04-01T12:53:56.331Z,2.16
2023-04-01T12:54:56.639Z,2.16
2023-04-01T12:55:56.171Z,1.97
2023-04-01T12:56:56.166Z,2.10
2023-04-01T12:57:56.003Z,2.11
2023-04-01T12:58:55.916Z,2.11
2023-04-01T12:59:55.849Z,2.07
2023-04-01T13:00:55.786Z,2.07
2023-04-01T13:01:55.662Z,1.82
2023-04-01T13:02:55.636Z,1.88
2023-04-01T13:03:55.561Z,1.78
2023-04-01T13:04:55.410Z,1.84
2023-04-01T13:05:55.343Z,1.86
2023-04-01T13:06:55.262Z,1.78
2023-04-01T13:07:55.156Z,1.72
2023-04-01T13:08:55.093Z,1.71
2023-04-01T13:09:55.007Z,1.69
2023-04-01T13:10:54.927Z,1.67
2023-04-01T13:11:54.875Z,1.69
2023-04-01T13:12:54.817Z,1.72
2023-04-01T13:13:54.684Z,1.68
2023-04-01T13:14:54.595Z,1.60
2023-04-01T13:15:54.597Z,1.60